Time;durP1;ratioP1;P1;durP2;ratioP2;P2;SDS_P1;SDS_P2;PMS_P1;PMS_P2;Temp;Humidity;BMP_temperature;BMP_pressure;BME280_temperature;BME280_humidity;BME280_pressure;Samples;Min_cycle;Max_cycle;Signal;HPM_P1;HPM_P2
2023/01/18 00:02:03;;;;;;;3.70;2.13;;;;;;;0.14;97.60;98763.53;5005575;28;20072;-44
2023/01/18 00:04:29;;;;;;;6.05;2.55;;;;;;;0.15;97.62;98762.44;5007084;28;20046;-43
2023/01/18 00:06:56;;;;;;;2.85;1.60;;;;;;;0.14;97.81;98758.09;5003688;28;20100;-45
2023/01/18 00:09:23;;;;;;;1.92;1.80;;;;;;;0.14;97.85;98761.63;5007895;28;20045;-43
2023/01/18 00:11:50;;;;;;;2.90;1.92;;;;;;;0.14;97.79;98764.34;5007633;28;20527;-44
2023/01/18 00:14:16;;;;;;;2.55;1.88;;;;;;;0.14;97.84;98761.63;5007415;28;20049;-50
2023/01/18 00:16:43;;;;;;;2.50;1.85;;;;;;;0.17;97.87;98760.19;5002033;28;20491;-44
2023/01/18 00:19:12;;;;;;;2.28;1.42;;;;;;;0.20;97.79;98764.97;5007454;28;20050;-44
2023/01/18 00:21:39;;;;;;;2.15;1.40;;;;;;;0.22;97.90;98768.16;4988088;28;20046;-45
2023/01/18 00:24:09;;;;;;;1.63;1.42;;;;;;;0.24;97.83;98765.94;5007404;28;20050;-51
2023/01/18 00:26:36;;;;;;;1.35;1.25;;;;;;;0.22;98.00;98762.72;5007778;28;20045;-43
2023/01/18 00:29:03;;;;;;;1.52;1.42;;;;;;;0.19;97.80;98747.03;5007283;28;20038;-44
2023/01/18 00:31:31;;;;;;;2.75;1.90;;;;;;;0.15;97.81;98752.34;5006272;28;20058;-45
2023/01/18 00:33:57;;;;;;;3.13;1.60;;;;;;;0.12;97.92;98750.28;5007486;28;20069;-44
2023/01/18 00:36:24;;;;;;;3.17;1.67;;;;;;;0.08;98.03;98746.59;5000626;28;20050;-43
2023/01/18 00:38:51;;;;;;;1.50;1.13;;;;;;;0.05;97.81;98760.88;5011118;28;20137;-43
2023/01/18 00:41:20;;;;;;;2.30;1.40;;;;;;;0.04;98.07;98767.41;5011363;28;20049;-46
2023/01/18 00:43:47;;;;;;;0.85;0.85;;;;;;;0.03;98.26;98773.97;5011116;28;20088;-46
2023/01/18 00:46:23;;;;;;;0.95;0.95;;;;;;;0.03;98.38;98765.03;5005323;28;20129;-44
2023/01/18 00:48:51;;;;;;;1.80;1.20;;;;;;;0.03;98.31;98760.38;5001370;28;20132;-42
2023/01/18 00:51:21;;;;;;;1.95;0.90;;;;;;;0.02;98.26;98764.22;5011407;28;20440;-43
2023/01/18 00:53:48;;;;;;;3.25;0.95;;;;;;;0.03;98.26;98771.25;5011622;28;20045;-43
2023/01/18 00:56:21;;;;;;;0.93;0.88;;;;;;;0.06;98.39;98773.31;5010790;28;20421;-49
2023/01/18 00:58:48;;;;;;;3.92;1.00;;;;;;;0.06;98.30;98776.06;5011365;28;20048;-44
2023/01/18 01:01:15;;;;;;;2.63;0.80;;;;;;;0.06;98.25;98778.78;5009482;28;20111;-42
2023/01/18 01:06:43;;;;;;;2.05;0.85;;;;;;;0.05;98.36;98766.31;5010350;28;20046;-50
2023/01/18 01:09:10;;;;;;;;;;;;;;;0.02;98.27;98769.66;5011116;28;20053;-47
2023/01/18 01:11:37;;;;;;;0.82;0.82;;;;;;;-0.01;98.28;98762.16;5010971;28;19921;-45
2023/01/18 01:27:50;;;;;;;3.17;1.30;;;;;;;-0.10;98.24;98804.88;4999916;28;20483;-42
2023/01/18 01:30:17;;;;;;;1.40;1.00;;;;;;;-0.13;98.26;98816.41;5010491;28;20070;-44
2023/01/18 01:32:44;;;;;;;0.80;0.80;;;;;;;-0.14;98.30;98810.19;5010626;28;20049;-45
2023/01/18 01:35:11;;;;;;;2.25;1.17;;;;;;;-0.15;98.49;98818.66;5010840;28;20045;-44
2023/01/18 01:37:38;;;;;;;1.67;0.70;;;;;;;-0.16;98.42;98812.41;5010473;28;20054;-43
2023/01/18 01:40:05;;;;;;;1.23;1.13;;;;;;;-0.13;98.67;98821.84;5008123;28;20042;-45
2023/01/18 01:42:32;;;;;;;3.45;1.20;;;;;;;-0.13;98.67;98821.84;5010280;28;20056;-45
2023/01/18 01:44:58;;;;;;;1.10;1.00;;;;;;;-0.13;98.75;98827.28;5010237;28;20053;-43
2023/01/18 01:47:33;;;;;;;4.10;1.67;;;;;;;-0.13;98.58;98821.84;5009335;28;20050;-44
2023/01/18 01:50:06;;;;;;;1.90;1.25;;;;;;;-0.12;98.75;98823.44;5010180;28;20053;-42
2023/01/18 01:52:39;;;;;;;1.63;1.42;;;;;;;-0.09;98.60;98828.25;5009818;28;20112;-44
2023/01/18 01:55:14;;;;;;;3.47;2.25;;;;;;;-0.06;98.93;98822.16;5009467;28;20092;-44
2023/01/18 01:57:54;;;;;;;1.20;1.10;;;;;;;-0.05;98.87;98835.44;5008821;28;20049;-44
2023/01/18 02:00:24;;;;;;;3.67;1.65;;;;;;;-0.04;98.60;98828.88;5009681;28;20068;-43
2023/01/18 02:03:04;;;;;;;4.05;1.70;;;;;;;-0.05;98.57;98845.50;5009861;28;20053;-51
2023/01/18 02:05:34;;;;;;;1.92;1.58;;;;;;;-0.07;98.63;98862.16;5010068;28;20133;-45
2023/01/18 02:08:02;;;;;;;1.85;1.13;;;;;;;-0.07;98.76;98858.63;5008560;28;20046;-43
2023/01/18 02:10:29;;;;;;;2.50;1.02;;;;;;;-0.08;98.75;98863.28;5009679;28;20053;-44
2023/01/18 02:12:58;;;;;;;0.85;0.80;;;;;;;-0.06;98.94;98871.13;5024453;28;20038;-43
2023/01/18 02:15:35;;;;;;;4.28;1.20;;;;;;;-0.04;98.76;98874.31;5009943;28;20053;-51
2023/01/18 02:18:14;;;;;;;1.45;1.30;;;;;;;-0.03;98.90;98881.38;5024037;28;20052;-44
2023/01/18 02:20:47;;;;;;;2.88;1.05;;;;;;;-0.03;98.70;98875.94;5009711;28;20056;-43
2023/01/18 02:23:32;;;;;;;;;;;;;;;-0.03;98.83;98870.50;5009947;28;20573;-43
2023/01/18 02:26:27;;;;;;;3.60;2.40;;;;;;;-0.05;98.94;98867.25;5001228;28;19933;-43
2023/01/18 02:29:37;;;;;;;6.38;2.40;;;;;;;-0.10;98.80;98890.00;5023592;28;20049;-43
2023/01/18 02:32:22;;;;;;;8.95;2.80;;;;;;;-0.11;98.72;98891.09;4955852;28;20065;-45
2023/01/18 02:35:05;;;;;;;3.35;1.27;;;;;;;-0.11;98.91;98903.94;5009542;28;20046;-43
2023/01/18 02:38:01;;;;;;;3.35;1.52;;;;;;;-0.09;98.92;98909.84;4988703;28;20051;-43
2023/01/18 02:40:55;;;;;;;3.60;1.00;;;;;;;-0.09;98.99;98918.00;5004628;28;20049;-48
2023/01/18 02:46:32;;;;;;;2.63;1.15;;;;;;;-0.15;98.88;98898.31;5024562;28;20188;-50
2023/01/18 02:49:21;;;;;;;1.83;1.27;;;;;;;-0.19;98.92;98883.78;5008901;28;20049;-42
2023/01/18 02:51:47;;;;;;;1.17;0.80;;;;;;;-0.20;98.93;98894.94;5008520;28;20045;-44
2023/01/18 02:54:23;;;;;;;1.23;0.90;;;;;;;-0.21;99.01;98906.94;4988630;28;20054;-43
2023/01/18 02:56:53;;;;;;;0.65;0.65;;;;;;;-0.23;99.20;98914.63;5007506;28;20442;-43
2023/01/18 02:59:25;;;;;;;2.25;1.08;;;;;;;-0.24;99.11;98911.09;5008300;28;20105;-48
2023/01/18 03:02:01;;;;;;;2.53;0.90;;;;;;;-0.25;99.10;98930.47;5056773;22;20498;-43
2023/01/18 03:04:32;;;;;;;2.55;0.80;;;;;;;-0.25;99.27;98912.22;5029274;28;20049;-44
2023/01/18 03:07:22;;;;;;;0.93;0.68;;;;;;;-0.25;99.22;98900.56;5031789;28;20057;-43
2023/01/18 03:09:49;;;;;;;1.80;1.00;;;;;;;-0.26;99.16;98913.34;5009399;28;20053;-43
2023/01/18 03:12:47;;;;;;;0.57;0.57;;;;;;;-0.27;99.42;98911.75;5026763;28;20045;-46
2023/01/18 03:15:31;;;;;;;1.10;0.70;;;;;;;-0.28;99.37;98906.63;5029291;28;20058;-46
2023/01/18 03:18:10;;;;;;;1.25;1.02;;;;;;;-0.31;99.48;98910.78;5011252;28;20197;-51
2023/01/18 03:20:42;;;;;;;1.17;0.90;;;;;;;-0.32;99.55;98913.81;5029035;28;20059;-47
2023/01/18 03:23:40;;;;;;;2.40;0.70;;;;;;;-0.33;99.44;98920.38;5029360;28;20491;-41
2023/01/18 03:26:18;;;;;;;1.60;1.45;;;;;;;-0.33;99.56;98914.94;5027961;28;20095;-42
2023/01/18 03:35:06;;;;;;;1.17;0.70;;;;;;;-0.31;99.43;98918.13;5029259;28;20053;-41
2023/01/18 03:37:41;;;;;;;2.33;1.10;;;;;;;-0.33;99.47;98925.81;5025081;28;20535;-41
2023/01/18 03:40:16;;;;;;;4.82;0.80;;;;;;;-0.30;99.54;98941.50;5027588;28;20480;-42
2023/01/18 03:42:54;;;;;;;3.63;1.10;;;;;;;-0.27;99.51;98947.09;5030278;28;20041;-44
2023/01/18 03:45:36;;;;;;;2.42;1.02;;;;;;;-0.25;99.99;98944.88;5028726;28;20399;-43
2023/01/18 03:48:06;;;;;;;2.30;0.90;;;;;;;-0.25;99.58;98935.91;5007692;28;20080;-44
2023/01/18 03:50:52;;;;;;;0.85;0.85;;;;;;;-0.26;99.45;98940.53;5025133;28;20045;-43
2023/01/18 03:53:31;;;;;;;2.38;1.23;;;;;;;-0.27;99.56;98954.47;5027565;28;20041;-42
2023/01/18 03:56:19;;;;;;;1.63;0.77;;;;;;;-0.29;99.74;98959.41;5009986;28;20054;-51
2023/01/18 03:58:50;;;;;;;5.53;1.25;;;;;;;-0.32;99.61;98955.38;5009263;28;20049;-45
2023/01/18 04:01:17;;;;;;;2.65;1.05;;;;;;;-0.33;99.50;98963.88;5026549;28;20467;-44
2023/01/18 04:03:43;;;;;;;1.90;1.02;;;;;;;-0.35;99.82;98960.69;5022388;28;20458;-43
2023/01/18 04:06:10;;;;;;;1.77;0.80;;;;;;;-0.38;99.73;98972.19;5025711;28;20141;-46
2023/01/18 04:08:37;;;;;;;2.63;1.00;;;;;;;-0.39;99.75;98981.44;5028127;28;20441;-44
2023/01/18 04:11:04;;;;;;;4.47;0.82;;;;;;;-0.42;99.82;98980.16;5020490;28;20656;-49
2023/01/18 04:13:30;;;;;;;3.58;1.00;;;;;;;-0.41;99.83;98978.25;5028500;28;20537;-44
2023/01/18 04:15:57;;;;;;;3.95;1.05;;;;;;;-0.42;99.83;98982.06;5028864;28;20396;-42
2023/01/18 04:18:24;;;;;;;3.03;1.08;;;;;;;-0.40;99.78;98983.38;5028105;28;20050;-44
2023/01/18 04:20:55;;;;;;;2.28;1.00;;;;;;;-0.37;99.86;98985.44;5028595;28;20099;-43
2023/01/18 04:23:22;;;;;;;5.53;1.88;;;;;;;-0.35;99.86;98982.44;5029495;28;20041;-49
2023/01/18 04:25:50;;;;;;;2.03;0.98;;;;;;;-0.33;99.98;98983.72;5028872;28;20491;-43
2023/01/18 04:28:24;;;;;;;3.80;1.05;;;;;;;-0.30;99.98;98987.72;5028664;28;20055;-44
2023/01/18 04:30:52;;;;;;;5.72;1.05;;;;;;;-0.27;100.00;98990.63;5028592;28;20376;-44
2023/01/18 04:33:19;;;;;;;2.30;0.90;;;;;;;-0.27;100.00;98990.63;5028830;28;20440;-43
2023/01/18 04:35:47;;;;;;;2.42;1.08;;;;;;;-0.24;100.00;98989.19;5028361;28;20163;-43
2023/01/18 04:38:14;;;;;;;8.30;1.30;;;;;;;-0.25;99.84;98990.28;5038740;28;20048;-43
2023/01/18 04:40:42;;;;;;;5.68;1.15;;;;;;;-0.27;99.96;98997.97;5028360;28;20076;-49
2023/01/18 04:43:08;;;;;;;1.27;1.02;;;;;;;-0.26;100.00;98991.38;5028682;28;20160;-43
2023/01/18 04:45:35;;;;;;;0.93;0.70;;;;;;;-0.25;100.00;99010.13;5028198;28;20037;-43
2023/01/18 04:48:02;;;;;;;3.35;0.70;;;;;;;-0.23;100.00;99007.06;5010438;28;20103;-44
2023/01/18 04:50:29;;;;;;;4.80;1.05;;;;;;;-0.21;100.00;99005.63;5028005;28;20045;-43
2023/01/18 04:52:56;;;;;;;4.18;2.33;;;;;;;-0.19;100.00;99008.06;5027721;28;20045;-45
2023/01/18 04:55:23;;;;;;;4.80;1.73;;;;;;;-0.20;100.00;99003.72;5028241;28;20049;-45
2023/01/18 04:57:58;;;;;;;7.90;1.27;;;;;;;-0.24;99.91;99005.50;5027418;28;20045;-43
2023/01/18 05:00:24;;;;;;;2.38;0.88;;;;;;;-0.27;100.00;99003.41;5027881;28;20041;-43
2023/01/18 05:02:51;;;;;;;2.58;0.90;;;;;;;-0.28;100.00;99010.75;5027764;28;20061;-43
2023/01/18 05:05:18;;;;;;;5.75;0.90;;;;;;;-0.28;100.00;99005.31;5028084;28;20469;-48
2023/01/18 05:07:44;;;;;;;2.58;1.17;;;;;;;-0.28;100.00;99001.78;5034268;28;20041;-46
2023/01/18 05:10:12;;;;;;;3.65;1.35;;;;;;;-0.29;100.00;99011.06;5028281;28;20073;-46
2023/01/18 05:12:39;;;;;;;4.10;1.17;;;;;;;-0.31;100.00;99022.25;5028290;28;20041;-43
2023/01/18 05:15:06;;;;;;;4.38;0.95;;;;;;;-0.34;99.94;99019.34;5027588;28;20080;-42
2023/01/18 05:17:33;;;;;;;5.72;1.17;;;;;;;-0.36;100.00;99030.56;5027724;28;20434;-44
2023/01/18 05:20:01;;;;;;;13.07;2.40;;;;;;;-0.37;100.00;99033.59;5027849;28;20128;-44
2023/01/18 05:22:28;;;;;;;5.35;1.35;;;;;;;-0.37;100.00;99039.03;5027837;28;20487;-44
2023/01/18 05:24:55;;;;;;;2.88;1.10;;;;;;;-0.39;100.00;99030.38;5032438;28;20060;-42
2023/01/18 05:27:22;;;;;;;2.78;1.52;;;;;;;-0.39;100.00;99035.81;5032066;28;20045;-43
2023/01/18 05:29:49;;;;;;;2.22;1.40;;;;;;;-0.36;100.00;99046.06;5031560;28;20056;-43
2023/01/18 05:32:16;;;;;;;5.53;2.65;;;;;;;-0.34;100.00;99043.81;5032073;28;20037;-43
2023/01/18 05:34:43;;;;;;;6.72;1.40;;;;;;;-0.32;100.00;99055.22;5013797;28;20045;-48
2023/01/18 05:37:10;;;;;;;3.63;1.23;;;;;;;-0.29;100.00;99057.31;5036145;28;20127;-45
2023/01/18 05:39:37;;;;;;;8.10;1.15;;;;;;;-0.25;100.00;99066.41;5039409;28;20053;-45
2023/01/18 05:42:04;;;;;;;3.00;0.95;;;;;;;-0.24;100.00;99060.66;5031673;28;20495;-43
2023/01/18 05:44:31;;;;;;;4.30;1.38;;;;;;;-0.19;100.00;99067.88;5029619;28;20057;-44
2023/01/18 05:46:58;;;;;;;5.55;0.85;;;;;;;-0.16;100.00;99061.81;5030796;28;20055;-45
2023/01/18 05:49:25;;;;;;;3.88;0.82;;;;;;;-0.15;100.00;99050.63;5031048;28;20042;-43
2023/01/18 05:51:51;;;;;;;5.60;1.00;;;;;;;-0.14;100.00;99056.88;5030909;28;20060;-44
2023/01/18 05:54:18;;;;;;;1.15;0.80;;;;;;;-0.12;100.00;99051.91;5030704;28;20064;-43
2023/01/18 05:56:45;;;;;;;5.38;0.90;;;;;;;-0.13;100.00;99056.53;5030223;28;20064;-45
2023/01/18 05:59:14;;;;;;;4.38;1.80;;;;;;;-0.12;100.00;99062.78;5036225;28;20054;-44
2023/01/18 06:01:41;;;;;;;3.05;0.90;;;;;;;-0.14;100.00;99071.25;5013048;28;20046;-43
2023/01/18 06:04:08;;;;;;;3.03;1.20;;;;;;;-0.15;100.00;99077.00;5030735;28;20534;-43
2023/01/18 06:06:35;;;;;;;12.57;2.20;;;;;;;-0.16;100.00;99081.63;5030044;28;20107;-43
2023/01/18 06:09:02;;;;;;;2.92;1.00;;;;;;;-0.19;100.00;99078.75;5031705;28;20115;-43
2023/01/18 06:11:30;;;;;;;6.30;1.83;;;;;;;-0.22;100.00;99073.94;5030174;28;20077;-43
2023/01/18 06:13:56;;;;;;;6.78;1.02;;;;;;;-0.24;100.00;99076.97;5030489;28;20049;-44
2023/01/18 06:16:23;;;;;;;1.80;1.58;;;;;;;-0.24;100.00;99081.63;5030742;28;20404;-47
2023/01/18 06:18:50;;;;;;;7.97;0.63;;;;;;;-0.27;100.00;99088.50;5030398;28;20570;-43
2023/01/18 06:21:17;;;;;;;3.17;0.80;;;;;;;-0.27;100.00;99093.13;5030483;28;20061;-43
2023/01/18 06:23:44;;;;;;;3.85;1.17;;;;;;;-0.29;100.00;99100.81;5028449;28;20109;-42
2023/01/18 06:26:11;;;;;;;4.65;0.85;;;;;;;-0.28;100.00;99102.38;5030727;28;20049;-48
2023/01/18 06:28:38;;;;;;;2.42;0.70;;;;;;;-0.29;100.00;99100.81;5029825;28;20053;-47
2023/01/18 06:31:07;;;;;;;3.13;0.73;;;;;;;-0.31;100.00;99120.13;5030591;28;20053;-42
2023/01/18 06:33:33;;;;;;;3.70;1.10;;;;;;;-0.30;100.00;99131.81;5030182;28;20077;-43
2023/01/18 06:36:00;;;;;;;5.38;0.93;;;;;;;-0.31;100.00;99138.34;5030505;28;20042;-43
2023/01/18 06:38:28;;;;;;;4.40;1.10;;;;;;;-0.33;100.00;99137.88;5021892;28;20046;-43
2023/01/18 06:40:55;;;;;;;4.75;1.70;;;;;;;-0.33;100.00;99143.31;5029987;28;20088;-45
2023/01/18 06:43:22;;;;;;;2.03;0.85;;;;;;;-0.34;100.00;99158.81;5029607;28;20061;-50
2023/01/18 06:45:53;;;;;;;2.92;1.92;;;;;;;-0.34;100.00;99169.69;5029615;28;20053;-46
2023/01/18 06:48:22;;;;;;;4.20;0.82;;;;;;;-0.33;100.00;99175.94;5030059;28;20041;-48
2023/01/18 06:50:53;;;;;;;4.35;1.23;;;;;;;-0.33;100.00;99162.34;5012355;28;20057;-43
2023/01/18 06:53:20;;;;;;;2.88;1.67;;;;;;;-0.32;100.00;99172.13;5027740;28;20120;-46
2023/01/18 06:55:53;;;;;;;3.92;0.80;;;;;;;-0.31;100.00;99185.41;5029659;28;20487;-43
2023/01/18 06:58:19;;;;;;;3.88;0.63;;;;;;;-0.31;100.00;99192.75;5029441;28;20414;-43
2023/01/18 07:00:46;;;;;;;1.95;0.95;;;;;;;-0.31;100.00;99199.00;5028697;28;20045;-44
2023/01/18 07:03:13;;;;;;;4.00;0.85;;;;;;;-0.31;100.00;99203.63;5029566;28;20045;-44
2023/01/18 07:05:39;;;;;;;8.43;1.42;;;;;;;-0.32;100.00;99205.53;5028595;28;20045;-49
2023/01/18 07:08:06;;;;;;;2.53;1.20;;;;;;;-0.31;100.00;99211.78;5033653;28;20495;-47
2023/01/18 07:10:33;;;;;;;7.25;1.08;;;;;;;-0.32;100.00;99210.19;5028475;28;20510;-43
2023/01/18 07:12:59;;;;;;;3.45;1.50;;;;;;;-0.33;100.00;99222.16;5028753;28;20092;-46
2023/01/18 07:15:27;;;;;;;10.10;1.25;;;;;;;-0.35;100.00;99218.97;5024518;28;20049;-43
2023/01/18 07:17:53;;;;;;;3.42;0.70;;;;;;;-0.34;100.00;99229.50;5027371;28;20033;-43
2023/01/18 07:20:20;;;;;;;2.13;0.90;;;;;;;-0.34;100.00;99223.25;5023396;28;20084;-43
2023/01/18 07:22:51;;;;;;;5.30;1.30;;;;;;;-0.34;100.00;99234.16;5025300;28;20052;-51
2023/01/18 07:25:19;;;;;;;6.10;1.48;;;;;;;-0.34;100.00;99240.38;5033180;28;20108;-45
2023/01/18 07:27:47;;;;;;;4.75;1.35;;;;;;;-0.31;100.00;99239.78;5033661;28;20041;-43
2023/01/18 07:30:15;;;;;;;8.15;1.35;;;;;;;-0.29;100.00;99253.06;5008819;28;20049;-43
2023/01/18 07:32:49;;;;;;;7.88;1.25;;;;;;;-0.27;100.00;99250.84;5027862;28;20042;-48
2023/01/18 07:35:18;;;;;;;9.98;1.60;;;;;;;-0.26;100.00;99266.03;5026060;28;20053;-46
2023/01/18 07:37:49;;;;;;;5.88;1.33;;;;;;;-0.20;100.00;99256.63;5007628;28;20042;-45
2023/01/18 07:40:16;;;;;;;7.13;1.48;;;;;;;-0.15;100.00;99265.47;5022837;28;20061;-44
2023/01/18 07:42:43;;;;;;;6.05;3.13;;;;;;;-0.10;100.00;99270.78;5033651;28;20061;-51
2023/01/18 07:45:10;;;;;;;3.95;1.30;;;;;;;-0.07;100.00;99274.78;5031559;28;20510;-48
2023/01/18 07:47:38;;;;;;;3.38;1.13;;;;;;;-0.01;100.00;99265.41;5034986;28;20168;-46
2023/01/18 07:50:05;;;;;;;4.40;1.65;;;;;;;0.04;100.00;99267.19;5027939;28;20045;-44
2023/01/18 07:52:32;;;;;;;3.22;1.20;;;;;;;0.06;100.00;99275.81;5024194;28;20145;-43
2023/01/18 07:54:59;;;;;;;3.78;1.15;;;;;;;0.09;100.00;99276.00;5027210;28;20049;-44
2023/01/18 07:57:26;;;;;;;5.60;1.90;;;;;;;0.13;100.00;99270.75;5039403;28;20037;-48
2023/01/18 07:59:52;;;;;;;2.30;1.13;;;;;;;0.17;100.00;99274.44;5028042;28;20051;-43
2023/01/18 08:02:19;;;;;;;3.88;1.23;;;;;;;0.21;99.90;99278.16;5026956;28;20585;-44
2023/01/18 08:04:49;;;;;;;2.35;0.90;;;;;;;0.23;100.00;99276.72;5027316;28;20156;-42
2023/01/18 08:07:16;;;;;;;1.70;0.68;;;;;;;0.25;100.00;99274.50;5032152;28;20048;-44
2023/01/18 08:09:43;;;;;;;6.63;1.25;;;;;;;0.26;99.86;99269.88;5027487;28;20049;-44
2023/01/18 08:12:16;;;;;;;6.65;1.17;;;;;;;0.28;100.00;99276.59;5009535;28;20041;-44
2023/01/18 08:14:46;;;;;;;3.28;1.30;;;;;;;0.30;99.71;99279.81;5026706;28;20115;-44
2023/01/18 08:17:13;;;;;;;9.18;1.25;;;;;;;0.32;99.95;99280.28;5026815;28;20128;-44
2023/01/18 08:19:40;;;;;;;1.58;0.40;;;;;;;0.34;99.65;99288.16;5024916;28;20124;-42
2023/01/18 08:22:07;;;;;;;6.30;0.93;;;;;;;0.35;99.82;99295.19;5035152;28;20137;-43
2023/01/18 08:24:34;;;;;;;7.57;0.90;;;;;;;0.35;99.69;99293.28;5027473;28;20079;-46
2023/01/18 08:27:00;;;;;;;16.08;1.75;;;;;;;0.34;99.79;99288.97;5026617;28;20053;-53
2023/01/18 08:29:28;;;;;;;1.15;0.73;;;;;;;0.35;99.82;99301.44;5027968;28;20049;-45
2023/01/18 08:31:55;;;;;;;1.90;0.80;;;;;;;0.36;99.87;99303.06;5015314;28;20054;-45
2023/01/18 08:34:22;;;;;;;1.70;0.68;;;;;;;0.35;99.67;99306.88;5021553;28;20131;-42
2023/01/18 08:36:49;;;;;;;2.42;0.85;;;;;;;0.34;99.80;99299.84;5021521;28;20069;-44
2023/01/18 08:39:16;;;;;;;2.60;0.50;;;;;;;0.35;99.85;99304.16;5021397;28;20045;-47
2023/01/18 08:41:45;;;;;;;2.53;0.47;;;;;;;0.36;99.95;99313.94;5026609;28;20123;-44
2023/01/18 08:44:12;;;;;;;1.52;0.63;;;;;;;0.36;99.72;99318.56;5029340;28;20041;-47
2023/01/18 08:46:39;;;;;;;2.75;0.63;;;;;;;0.36;99.95;99316.66;5025789;28;20045;-44
2023/01/18 08:49:06;;;;;;;1.73;0.50;;;;;;;0.37;99.84;99320.19;5027341;28;20572;-46
2023/01/18 08:51:32;;;;;;;0.52;0.40;;;;;;;0.39;99.66;99332.38;5024044;28;20046;-46
2023/01/18 08:53:59;;;;;;;3.85;1.02;;;;;;;0.40;99.95;99322.25;5022956;28;20045;-44
2023/01/18 08:56:27;;;;;;;1.80;0.45;;;;;;;0.43;99.87;99318.91;5028350;28;20095;-45
2023/01/18 08:58:54;;;;;;;3.75;0.60;;;;;;;0.47;99.77;99326.16;5009868;28;20033;-43
2023/01/18 09:01:22;;;;;;;3.05;0.50;;;;;;;0.52;99.59;99339.66;5029310;28;20049;-44
2023/01/18 09:03:53;;;;;;;2.08;0.40;;;;;;;0.58;99.76;99332.94;5030076;28;20405;-45
2023/01/18 09:06:20;;;;;;;1.30;0.40;;;;;;;0.64;99.66;99336.31;5030643;28;20490;-44
2023/01/18 09:08:47;;;;;;;0.73;0.40;;;;;;;0.69;99.73;99338.13;5027241;28;20065;-45
2023/01/18 09:11:15;;;;;;;0.57;0.22;;;;;;;0.74;99.49;99346.97;5023871;28;20400;-42
2023/01/18 09:13:43;;;;;;;4.78;0.60;;;;;;;0.80;99.34;99347.59;5040093;28;20052;-45
2023/01/18 09:16:25;;;;;;;2.40;1.45;;;;;;;0.87;99.65;99356.13;5018214;28;20057;-41
2023/01/18 09:18:54;;;;;;;2.05;1.25;;;;;;;0.95;99.29;99355.34;5023297;28;20076;-48
2023/01/18 09:21:21;;;;;;;3.90;0.75;;;;;;;1.04;99.26;99356.19;5027993;28;20049;-47
2023/01/18 09:23:48;;;;;;;1.35;1.00;;;;;;;1.09;99.05;99366.94;5028948;28;20054;-45
2023/01/18 09:26:16;;;;;;;4.30;1.00;;;;;;;1.13;99.36;99359.75;5029796;28;20458;-45
2023/01/18 09:28:43;;;;;;;0.60;0.50;;;;;;;1.18;98.89;99375.94;5030271;28;20052;-46
2023/01/18 09:31:11;;;;;;;1.27;0.77;;;;;;;1.21;99.36;99383.50;5039793;28;20056;-44
2023/01/18 09:33:41;;;;;;;2.47;1.15;;;;;;;1.23;99.06;99375.78;5028220;28;20073;-44
2023/01/18 09:36:20;;;;;;;1.85;0.63;;;;;;;1.23;98.90;99389.41;5026766;28;20053;-43
2023/01/18 09:38:47;;;;;;;3.90;0.88;;;;;;;1.24;99.15;99393.78;5007801;28;20124;-45
2023/01/18 09:41:35;;;;;;;3.00;0.80;;;;;;;1.22;98.99;99394.06;5014293;28;20065;-42
2023/01/18 09:44:08;;;;;;;2.13;0.82;;;;;;;1.22;99.04;99393.25;5018747;28;20049;-42
2023/01/18 09:46:38;;;;;;;1.88;1.00;;;;;;;1.18;99.15;99400.47;5022451;28;20045;-42
2023/01/18 09:49:12;;;;;;;2.55;0.70;;;;;;;1.16;99.27;99387.19;5028834;28;20053;-42
2023/01/18 09:52:00;;;;;;;0.85;0.77;;;;;;;1.14;99.02;99405.75;5026825;28;20049;-42
2023/01/18 09:54:40;;;;;;;7.07;0.68;;;;;;;1.12;99.18;99409.91;5029582;28;20048;-43
2023/01/18 09:57:22;;;;;;;0.65;0.63;;;;;;;1.06;98.95;99409.25;5030245;28;20049;-42
2023/01/18 10:00:03;;;;;;;4.00;0.98;;;;;;;1.00;98.82;99429.59;5027711;28;20045;-43
2023/01/18 10:02:39;;;;;;;2.60;1.08;;;;;;;0.96;99.18;99414.16;5029376;28;20056;-42
2023/01/18 10:05:20;;;;;;;1.92;1.02;;;;;;;0.94;99.25;99424.59;5029574;28;20140;-42
2023/01/18 10:08:01;;;;;;;1.65;0.50;;;;;;;0.93;99.26;99409.34;5033136;28;20046;-43
2023/01/18 10:11:03;;;;;;;5.00;1.15;;;;;;;0.92;99.30;99424.91;5029222;28;20065;-42
2023/01/18 10:13:37;;;;;;;1.63;0.87;;;;;;;0.96;99.31;99425.88;5027014;28;20626;-42
2023/01/18 10:16:13;;;;;;;0.85;0.40;;;;;;;0.99;99.13;99413.53;5022151;28;20045;-42
2023/01/18 10:18:46;;;;;;;2.08;0.50;;;;;;;1.00;99.26;99418.69;5011699;28;20045;-43
2023/01/18 10:21:46;;;;;;;2.75;0.60;;;;;;;1.02;99.05;99432.00;5029434;28;20495;-43
2023/01/18 10:24:22;;;;;;;2.97;1.00;;;;;;;1.09;99.23;99435.06;5028523;28;20133;-42
2023/01/18 10:26:56;;;;;;;1.63;0.80;;;;;;;1.17;99.11;99442.47;5029170;28;20083;-48
2023/01/18 10:29:36;;;;;;;1.95;0.68;;;;;;;1.21;98.96;99440.75;5025362;28;20053;-45
2023/01/18 10:32:09;;;;;;;2.13;0.65;;;;;;;1.30;99.27;99448.94;5029099;28;20878;-47
2023/01/18 10:34:44;;;;;;;3.95;0.88;;;;;;;1.38;99.19;99459.88;5027712;28;20107;-43
2023/01/18 10:37:16;;;;;;;2.15;0.85;;;;;;;1.44;99.06;99458.59;5033878;28;20041;-51
2023/01/18 10:39:48;;;;;;;2.08;0.70;;;;;;;1.51;98.98;99458.94;5018060;28;20053;-42
2023/01/18 10:42:22;;;;;;;3.47;1.60;;;;;;;1.62;98.76;99468.44;5027923;28;20048;-43
2023/01/18 10:44:48;;;;;;;5.68;0.73;;;;;;;1.67;98.48;99473.75;5029132;28;20473;-43
2023/01/18 10:47:17;;;;;;;1.13;0.88;;;;;;;1.70;98.51;99478.56;5029753;28;20068;-43
2023/01/18 10:49:47;;;;;;;2.92;0.77;;;;;;;1.71;98.51;99480.19;5028917;28;20513;-43
2023/01/18 10:52:25;;;;;;;2.95;0.75;;;;;;;1.73;98.59;99482.59;5011398;28;20563;-43
2023/01/18 10:54:56;;;;;;;8.23;1.98;;;;;;;1.78;98.49;99485.16;5028626;28;20088;-43
2023/01/18 10:57:31;;;;;;;5.28;0.70;;;;;;;1.84;98.72;99489.38;5009936;28;20483;-43
2023/01/18 10:59:58;;;;;;;4.20;0.98;;;;;;;1.89;98.68;99482.94;5016206;28;20611;-43
2023/01/18 11:02:34;;;;;;;3.90;1.17;;;;;;;1.96;98.44;99475.88;5027075;28;20053;-42
2023/01/18 11:05:18;;;;;;;3.95;1.15;;;;;;;2.09;98.18;99479.63;5029124;28;20107;-46
2023/01/18 11:07:45;;;;;;;6.60;1.73;;;;;;;2.17;98.45;99476.09;5032846;28;20060;-50
2023/01/18 11:10:24;;;;;;;4.65;1.38;;;;;;;2.25;97.95;99478.03;5027454;28;20514;-43
2023/01/18 11:12:53;;;;;;;3.63;1.02;;;;;;;2.27;98.17;99490.22;5015824;28;20045;-42
2023/01/18 11:15:25;;;;;;;2.70;0.90;;;;;;;2.29;98.15;99489.88;5026959;28;20507;-41
2023/01/18 11:17:59;;;;;;;3.60;1.60;;;;;;;2.28;97.91;99491.00;5028240;28;20041;-46
2023/01/18 11:20:49;;;;;;;3.03;1.23;;;;;;;2.28;97.83;99482.81;5027906;28;20046;-46
2023/01/18 11:23:20;;;;;;;4.78;2.03;;;;;;;2.29;98.36;99495.34;5027676;28;20057;-42
2023/01/18 11:25:54;;;;;;;4.85;2.05;;;;;;;2.32;98.11;99502.91;5028280;28;20057;-42
2023/01/18 11:28:33;;;;;;;2.78;1.05;;;;;;;2.31;98.20;99502.09;5028467;28;20058;-43
2023/01/18 11:31:30;;;;;;;2.65;1.10;;;;;;;2.30;97.75;99502.44;5015905;28;20052;-42
2023/01/18 11:34:03;;;;;;;6.13;1.23;;;;;;;2.32;97.75;99497.44;4999138;28;20132;-44
2023/01/18 11:36:34;;;;;;;4.75;1.27;;;;;;;2.34;97.66;99500.66;5027495;28;20487;-47
2023/01/18 11:39:36;;;;;;;1.33;0.80;;;;;;;2.44;97.82;99508.53;5026564;28;20136;-42
2023/01/18 11:42:24;;;;;;;2.30;1.30;;;;;;;2.51;97.83;99505.31;4966796;28;20066;-43
2023/01/18 11:45:15;;;;;;;1.08;0.47;;;;;;;2.52;97.36;99515.91;5022740;28;20302;-44
2023/01/18 11:48:04;;;;;;;1.48;0.52;;;;;;;2.52;97.18;99520.56;5028142;28;20049;-43
2023/01/18 11:50:38;;;;;;;1.80;0.68;;;;;;;2.46;97.18;99522.69;5015611;28;20402;-44
2023/01/18 11:53:20;;;;;;;2.00;1.10;;;;;;;2.43;97.61;99526.06;5027737;28;20054;-48
2023/01/18 11:56:00;;;;;;;3.75;1.13;;;;;;;2.44;97.13;99520.25;5030586;28;20061;-48
2023/01/18 11:58:28;;;;;;;3.22;1.20;;;;;;;2.45;97.39;99537.44;5028079;28;20060;-44
2023/01/18 12:01:20;;;;;;;4.38;2.15;;;;;;;2.49;97.29;99543.88;5027613;28;20064;-42
2023/01/18 12:04:10;;;;;;;5.07;2.20;;;;;;;2.50;97.10;99542.75;5028256;28;20049;-42
2023/01/18 12:06:58;;;;;;;6.13;2.25;;;;;;;2.47;97.17;99540.66;5018867;28;20037;-42
2023/01/18 12:09:40;;;;;;;6.20;1.98;;;;;;;2.44;97.38;99544.03;5024254;28;20411;-43
2023/01/18 12:12:51;;;;;;;4.00;2.08;;;;;;;2.43;97.06;99556.09;5028314;28;20103;-43
2023/01/18 12:15:27;;;;;;;7.22;2.38;;;;;;;2.41;97.36;99563.78;5026162;28;20052;-48
2023/01/18 12:18:15;;;;;;;7.35;3.05;;;;;;;2.40;97.56;99570.38;5015361;28;20438;-43
2023/01/18 12:20:42;;;;;;;5.70;2.67;;;;;;;2.38;97.31;99575.38;5026029;28;20084;-42
2023/01/18 12:23:27;;;;;;;4.60;2.30;;;;;;;2.36;97.49;99567.47;5027611;28;20503;-43